sensor_id;sensor_type;location;lat;lon;timestamp;P1;durP1;ratioP1;P2;durP2;ratioP2
55037;SDS011;40937;53.594;10.034;2023-06-22T00:00:04;3.72;;;3.42;;
55037;SDS011;40937;53.594;10.034;2023-06-22T00:02:37;5.32;;;4.18;;
55037;SDS011;40937;53.594;10.034;2023-06-22T00:05:05;3.78;;;3.47;;
55037;SDS011;40937;53.594;10.034;2023-06-22T00:07:32;4.93;;;4.43;;
55037;SDS011;40937;53.594;10.034;2023-06-22T00:09:59;4.18;;;3.42;;
55037;SDS011;40937;53.594;10.034;2023-06-22T00:12:28;4.03;;;3.63;;
55037;SDS011;40937;53.594;10.034;2023-06-22T00:14:55;4.25;;;3.95;;
55037;SDS011;40937;53.594;10.034;2023-06-22T00:17:23;5.30;;;3.50;;
55037;SDS011;40937;53.594;10.034;2023-06-22T00:19:50;4.22;;;3.85;;
55037;SDS011;40937;53.594;10.034;2023-06-22T00:22:19;4.63;;;3.45;;
55037;SDS011;40937;53.594;10.034;2023-06-22T00:24:55;4.50;;;4.15;;
55037;SDS011;40937;53.594;10.034;2023-06-22T00:27:22;4.25;;;3.88;;
55037;SDS011;40937;53.594;10.034;2023-06-22T00:29:51;4.05;;;3.70;;
55037;SDS011;40937;53.594;10.034;2023-06-22T00:32:18;6.40;;;3.55;;
55037;SDS011;40937;53.594;10.034;2023-06-22T00:34:47;3.88;;;3.58;;
55037;SDS011;40937;53.594;10.034;2023-06-22T00:37:14;8.45;;;4.05;;
55037;SDS011;40937;53.594;10.034;2023-06-22T00:39:41;5.60;;;3.78;;
55037;SDS011;40937;53.594;10.034;2023-06-22T00:42:09;4.25;;;3.40;;
55037;SDS011;40937;53.594;10.034;2023-06-22T00:44:36;3.78;;;3.47;;
55037;SDS011;40937;53.594;10.034;2023-06-22T00:47:05;5.70;;;4.07;;
55037;SDS011;40937;53.594;10.034;2023-06-22T00:49:32;4.35;;;4.00;;
55037;SDS011;40937;53.594;10.034;2023-06-22T00:52:00;4.35;;;4.00;;
55037;SDS011;40937;53.594;10.034;2023-06-22T00:54:27;4.35;;;3.95;;
55037;SDS011;40937;53.594;10.034;2023-06-22T00:56:55;7.90;;;4.63;;
55037;SDS011;40937;53.594;10.034;2023-06-22T00:59:23;4.57;;;4.18;;
55037;SDS011;40937;53.594;10.034;2023-06-22T01:01:51;4.97;;;4.53;;
55037;SDS011;40937;53.594;10.034;2023-06-22T01:04:21;5.38;;;4.20;;
55037;SDS011;40937;53.594;10.034;2023-06-22T01:06:52;4.10;;;3.80;;
55037;SDS011;40937;53.594;10.034;2023-06-22T01:09:25;4.33;;;4.00;;
55037;SDS011;40937;53.594;10.034;2023-06-22T01:11:59;5.05;;;4.10;;
55037;SDS011;40937;53.594;10.034;2023-06-22T01:14:32;5.00;;;4.20;;
55037;SDS011;40937;53.594;10.034;2023-06-22T01:19:37;4.28;;;3.55;;
55037;SDS011;40937;53.594;10.034;2023-06-22T01:22:08;6.50;;;4.63;;
55037;SDS011;40937;53.594;10.034;2023-06-22T01:24:42;4.25;;;3.95;;
55037;SDS011;40937;53.594;10.034;2023-06-22T01:27:22;4.43;;;4.07;;
55037;SDS011;40937;53.594;10.034;2023-06-22T01:29:59;4.85;;;4.50;;
55037;SDS011;40937;53.594;10.034;2023-06-22T01:32:30;4.38;;;4.07;;
55037;SDS011;40937;53.594;10.034;2023-06-22T01:35:00;5.43;;;5.03;;
55037;SDS011;40937;53.594;10.034;2023-06-22T01:37:30;4.13;;;3.83;;
55037;SDS011;40937;53.594;10.034;2023-06-22T01:39:59;4.22;;;3.92;;
55037;SDS011;40937;53.594;10.034;2023-06-22T01:42:27;5.10;;;4.60;;
55037;SDS011;40937;53.594;10.034;2023-06-22T01:44:54;6.15;;;4.25;;
55037;SDS011;40937;53.594;10.034;2023-06-22T01:47:24;5.97;;;4.30;;
55037;SDS011;40937;53.594;10.034;2023-06-22T01:49:53;5.03;;;4.57;;
55037;SDS011;40937;53.594;10.034;2023-06-22T01:52:21;5.10;;;4.70;;
55037;SDS011;40937;53.594;10.034;2023-06-22T01:54:50;8.48;;;4.75;;
55037;SDS011;40937;53.594;10.034;2023-06-22T01:57:18;4.78;;;4.38;;
55037;SDS011;40937;53.594;10.034;2023-06-22T01:59:48;5.18;;;4.53;;
55037;SDS011;40937;53.594;10.034;2023-06-22T02:02:19;4.70;;;4.38;;
55037;SDS011;40937;53.594;10.034;2023-06-22T02:07:23;6.65;;;4.63;;
55037;SDS011;40937;53.594;10.034;2023-06-22T02:09:54;6.82;;;4.88;;
55037;SDS011;40937;53.594;10.034;2023-06-22T02:12:23;6.78;;;5.30;;
55037;SDS011;40937;53.594;10.034;2023-06-22T02:14:53;5.35;;;4.80;;
55037;SDS011;40937;53.594;10.034;2023-06-22T02:17:20;5.15;;;4.65;;
55037;SDS011;40937;53.594;10.034;2023-06-22T02:19:48;6.38;;;4.75;;
55037;SDS011;40937;53.594;10.034;2023-06-22T02:22:17;5.40;;;4.90;;
55037;SDS011;40937;53.594;10.034;2023-06-22T02:24:44;6.00;;;4.90;;
55037;SDS011;40937;53.594;10.034;2023-06-22T02:27:11;6.40;;;5.00;;
55037;SDS011;40937;53.594;10.034;2023-06-22T02:29:38;7.00;;;4.43;;
55037;SDS011;40937;53.594;10.034;2023-06-22T02:32:06;4.95;;;4.55;;
55037;SDS011;40937;53.594;10.034;2023-06-22T02:34:33;7.63;;;4.65;;
55037;SDS011;40937;53.594;10.034;2023-06-22T02:37:02;5.65;;;4.60;;
55037;SDS011;40937;53.594;10.034;2023-06-22T02:39:32;6.68;;;5.30;;
55037;SDS011;40937;53.594;10.034;2023-06-22T02:41:59;5.20;;;4.80;;
55037;SDS011;40937;53.594;10.034;2023-06-22T02:44:27;9.27;;;5.78;;
55037;SDS011;40937;53.594;10.034;2023-06-22T02:46:54;5.60;;;5.05;;
55037;SDS011;40937;53.594;10.034;2023-06-22T02:49:22;7.60;;;6.03;;
55037;SDS011;40937;53.594;10.034;2023-06-22T02:51:50;7.25;;;6.07;;
55037;SDS011;40937;53.594;10.034;2023-06-22T02:54:20;5.82;;;4.88;;
55037;SDS011;40937;53.594;10.034;2023-06-22T02:56:51;6.70;;;5.80;;
55037;SDS011;40937;53.594;10.034;2023-06-22T02:59:20;7.47;;;5.10;;
55037;SDS011;40937;53.594;10.034;2023-06-22T03:01:50;6.10;;;5.60;;
55037;SDS011;40937;53.594;10.034;2023-06-22T03:04:22;5.85;;;5.28;;
55037;SDS011;40937;53.594;10.034;2023-06-22T03:06:49;7.10;;;5.55;;
55037;SDS011;40937;53.594;10.034;2023-06-22T03:09:17;6.47;;;5.82;;
55037;SDS011;40937;53.594;10.034;2023-06-22T03:11:44;6.45;;;5.30;;
55037;SDS011;40937;53.594;10.034;2023-06-22T03:14:13;6.25;;;5.68;;
55037;SDS011;40937;53.594;10.034;2023-06-22T03:16:40;6.88;;;5.97;;
55037;SDS011;40937;53.594;10.034;2023-06-22T03:19:07;5.82;;;5.43;;
55037;SDS011;40937;53.594;10.034;2023-06-22T03:21:35;6.18;;;5.70;;
55037;SDS011;40937;53.594;10.034;2023-06-22T03:24:04;9.70;;;6.38;;
55037;SDS011;40937;53.594;10.034;2023-06-22T03:26:31;6.57;;;5.95;;
55037;SDS011;40937;53.594;10.034;2023-06-22T03:28:58;6.60;;;6.00;;
55037;SDS011;40937;53.594;10.034;2023-06-22T03:31:30;8.77;;;6.78;;
55037;SDS011;40937;53.594;10.034;2023-06-22T03:33:58;8.57;;;6.57;;
55037;SDS011;40937;53.594;10.034;2023-06-22T03:36:26;6.00;;;5.50;;
55037;SDS011;40937;53.594;10.034;2023-06-22T03:38:53;6.95;;;6.10;;
55037;SDS011;40937;53.594;10.034;2023-06-22T03:41:21;8.00;;;7.20;;
55037;SDS011;40937;53.594;10.034;2023-06-22T03:43:48;6.03;;;5.53;;
55037;SDS011;40937;53.594;10.034;2023-06-22T03:46:16;7.28;;;6.57;;
55037;SDS011;40937;53.594;10.034;2023-06-22T03:48:44;6.45;;;5.85;;
55037;SDS011;40937;53.594;10.034;2023-06-22T03:51:11;6.40;;;5.90;;
55037;SDS011;40937;53.594;10.034;2023-06-22T03:53:39;7.22;;;5.60;;
55037;SDS011;40937;53.594;10.034;2023-06-22T03:56:06;7.95;;;6.10;;
55037;SDS011;40937;53.594;10.034;2023-06-22T03:58:33;7.20;;;6.50;;
55037;SDS011;40937;53.594;10.034;2023-06-22T04:01:02;7.57;;;6.97;;
55037;SDS011;40937;53.594;10.034;2023-06-22T04:03:29;7.45;;;6.35;;
55037;SDS011;40937;53.594;10.034;2023-06-22T04:05:57;7.47;;;6.78;;
55037;SDS011;40937;53.594;10.034;2023-06-22T04:08:25;8.77;;;7.82;;
55037;SDS011;40937;53.594;10.034;2023-06-22T04:10:52;7.80;;;7.10;;
55037;SDS011;40937;53.594;10.034;2023-06-22T04:13:19;7.03;;;6.43;;
55037;SDS011;40937;53.594;10.034;2023-06-22T04:15:46;7.43;;;6.53;;
55037;SDS011;40937;53.594;10.034;2023-06-22T04:18:13;7.65;;;6.85;;
55037;SDS011;40937;53.594;10.034;2023-06-22T04:20:40;7.30;;;6.60;;
55037;SDS011;40937;53.594;10.034;2023-06-22T04:23:09;8.20;;;6.35;;
55037;SDS011;40937;53.594;10.034;2023-06-22T04:25:36;7.13;;;6.53;;
55037;SDS011;40937;53.594;10.034;2023-06-22T04:28:03;8.52;;;6.43;;
55037;SDS011;40937;53.594;10.034;2023-06-22T04:30:32;7.82;;;7.03;;
55037;SDS011;40937;53.594;10.034;2023-06-22T04:32:59;7.78;;;7.07;;
55037;SDS011;40937;53.594;10.034;2023-06-22T04:35:26;7.18;;;6.57;;
55037;SDS011;40937;53.594;10.034;2023-06-22T04:37:58;9.90;;;6.53;;
55037;SDS011;40937;53.594;10.034;2023-06-22T04:40:27;7.07;;;6.47;;
55037;SDS011;40937;53.594;10.034;2023-06-22T04:42:54;8.00;;;6.85;;
55037;SDS011;40937;53.594;10.034;2023-06-22T04:45:22;7.55;;;6.82;;
55037;SDS011;40937;53.594;10.034;2023-06-22T04:47:49;12.50;;;7.05;;
55037;SDS011;40937;53.594;10.034;2023-06-22T04:50:16;7.47;;;6.72;;
55037;SDS011;40937;53.594;10.034;2023-06-22T04:52:46;11.45;;;6.90;;
55037;SDS011;40937;53.594;10.034;2023-06-22T04:55:14;8.07;;;7.40;;
55037;SDS011;40937;53.594;10.034;2023-06-22T04:57:45;8.23;;;7.03;;
55037;SDS011;40937;53.594;10.034;2023-06-22T05:00:14;10.90;;;6.78;;
55037;SDS011;40937;53.594;10.034;2023-06-22T05:02:43;8.48;;;7.43;;
55037;SDS011;40937;53.594;10.034;2023-06-22T05:05:11;7.47;;;6.88;;
55037;SDS011;40937;53.594;10.034;2023-06-22T05:07:42;6.20;;;5.60;;
55037;SDS011;40937;53.594;10.034;2023-06-22T05:10:10;6.70;;;5.95;;
55037;SDS011;40937;53.594;10.034;2023-06-22T05:12:39;5.60;;;4.93;;
55037;SDS011;40937;53.594;10.034;2023-06-22T05:15:09;7.05;;;5.60;;
55037;SDS011;40937;53.594;10.034;2023-06-22T05:17:36;5.28;;;4.82;;
55037;SDS011;40937;53.594;10.034;2023-06-22T05:20:08;6.05;;;5.43;;
55037;SDS011;40937;53.594;10.034;2023-06-22T05:22:36;5.50;;;4.68;;
55037;SDS011;40937;53.594;10.034;2023-06-22T05:25:05;5.35;;;4.85;;
55037;SDS011;40937;53.594;10.034;2023-06-22T05:27:34;4.90;;;4.60;;
55037;SDS011;40937;53.594;10.034;2023-06-22T05:30:05;4.60;;;4.22;;
55037;SDS011;40937;53.594;10.034;2023-06-22T05:32:34;5.10;;;4.60;;
55037;SDS011;40937;53.594;10.034;2023-06-22T05:35:02;6.55;;;4.40;;
55037;SDS011;40937;53.594;10.034;2023-06-22T05:37:30;4.93;;;4.20;;
55037;SDS011;40937;53.594;10.034;2023-06-22T05:39:57;4.32;;;3.92;;
55037;SDS011;40937;53.594;10.034;2023-06-22T05:42:24;5.65;;;5.05;;
55037;SDS011;40937;53.594;10.034;2023-06-22T05:44:52;4.93;;;4.53;;
55037;SDS011;40937;53.594;10.034;2023-06-22T05:47:20;5.97;;;4.13;;
55037;SDS011;40937;53.594;10.034;2023-06-22T05:49:50;4.60;;;3.67;;
55037;SDS011;40937;53.594;10.034;2023-06-22T05:52:17;8.07;;;3.80;;
55037;SDS011;40937;53.594;10.034;2023-06-22T05:54:44;7.53;;;3.83;;
55037;SDS011;40937;53.594;10.034;2023-06-22T05:57:11;6.40;;;3.60;;
55037;SDS011;40937;53.594;10.034;2023-06-22T05:59:38;6.57;;;4.00;;
55037;SDS011;40937;53.594;10.034;2023-06-22T06:02:06;3.53;;;3.33;;
55037;SDS011;40937;53.594;10.034;2023-06-22T06:04:33;3.97;;;3.53;;
55037;SDS011;40937;53.594;10.034;2023-06-22T06:07:02;7.50;;;2.97;;
55037;SDS011;40937;53.594;10.034;2023-06-22T06:09:30;4.72;;;3.65;;
55037;SDS011;40937;53.594;10.034;2023-06-22T06:11:57;5.65;;;3.50;;
55037;SDS011;40937;53.594;10.034;2023-06-22T06:14:24;4.35;;;3.28;;
55037;SDS011;40937;53.594;10.034;2023-06-22T06:16:51;3.20;;;2.90;;
55037;SDS011;40937;53.594;10.034;2023-06-22T06:19:19;3.55;;;2.92;;
55037;SDS011;40937;53.594;10.034;2023-06-22T06:21:46;3.30;;;3.03;;
55037;SDS011;40937;53.594;10.034;2023-06-22T06:24:14;4.38;;;3.42;;
55037;SDS011;40937;53.594;10.034;2023-06-22T06:26:42;3.60;;;3.30;;
55037;SDS011;40937;53.594;10.034;2023-06-22T06:29:09;3.53;;;3.30;;
55037;SDS011;40937;53.594;10.034;2023-06-22T06:31:36;4.70;;;3.60;;
55037;SDS011;40937;53.594;10.034;2023-06-22T06:34:03;3.88;;;3.45;;
55037;SDS011;40937;53.594;10.034;2023-06-22T06:36:30;6.20;;;3.17;;
55037;SDS011;40937;53.594;10.034;2023-06-22T06:38:58;3.85;;;2.95;;
55037;SDS011;40937;53.594;10.034;2023-06-22T06:41:26;3.92;;;3.03;;
55037;SDS011;40937;53.594;10.034;2023-06-22T06:43:53;7.95;;;3.50;;
55037;SDS011;40937;53.594;10.034;2023-06-22T06:46:21;3.38;;;3.13;;
55037;SDS011;40937;53.594;10.034;2023-06-22T06:48:48;3.95;;;3.20;;
55037;SDS011;40937;53.594;10.034;2023-06-22T06:51:15;4.25;;;3.08;;
55037;SDS011;40937;53.594;10.034;2023-06-22T06:53:42;4.22;;;3.83;;
55037;SDS011;40937;53.594;10.034;2023-06-22T06:56:09;5.72;;;3.33;;
55037;SDS011;40937;53.594;10.034;2023-06-22T06:58:40;5.65;;;3.28;;
55037;SDS011;40937;53.594;10.034;2023-06-22T07:01:07;8.20;;;3.35;;
55037;SDS011;40937;53.594;10.034;2023-06-22T07:03:36;4.00;;;3.60;;
55037;SDS011;40937;53.594;10.034;2023-06-22T07:06:03;5.57;;;3.17;;
55037;SDS011;40937;53.594;10.034;2023-06-22T07:08:30;5.38;;;3.60;;
55037;SDS011;40937;53.594;10.034;2023-06-22T07:10:57;4.18;;;3.80;;
55037;SDS011;40937;53.594;10.034;2023-06-22T07:13:26;9.38;;;4.00;;
55037;SDS011;40937;53.594;10.034;2023-06-22T07:15:55;10.30;;;4.18;;
55037;SDS011;40937;53.594;10.034;2023-06-22T07:18:23;5.38;;;3.92;;
55037;SDS011;40937;53.594;10.034;2023-06-22T07:20:52;5.38;;;3.90;;
55037;SDS011;40937;53.594;10.034;2023-06-22T07:23:19;3.92;;;3.47;;
55037;SDS011;40937;53.594;10.034;2023-06-22T07:25:46;4.40;;;3.83;;
55037;SDS011;40937;53.594;10.034;2023-06-22T07:28:14;4.45;;;3.45;;
55037;SDS011;40937;53.594;10.034;2023-06-22T07:30:41;4.05;;;3.60;;
55037;SDS011;40937;53.594;10.034;2023-06-22T07:33:10;4.50;;;3.88;;
55037;SDS011;40937;53.594;10.034;2023-06-22T07:35:37;5.60;;;3.20;;
55037;SDS011;40937;53.594;10.034;2023-06-22T07:38:04;3.13;;;2.83;;
55037;SDS011;40937;53.594;10.034;2023-06-22T07:40:32;4.00;;;3.60;;
55037;SDS011;40937;53.594;10.034;2023-06-22T07:43:00;4.47;;;4.07;;
55037;SDS011;40937;53.594;10.034;2023-06-22T07:45:29;3.53;;;3.25;;
55037;SDS011;40937;53.594;10.034;2023-06-22T07:47:59;3.17;;;2.88;;
55037;SDS011;40937;53.594;10.034;2023-06-22T07:50:27;8.93;;;3.33;;
55037;SDS011;40937;53.594;10.034;2023-06-22T07:52:54;3.70;;;2.95;;
55037;SDS011;40937;53.594;10.034;2023-06-22T07:55:22;6.20;;;3.13;;
55037;SDS011;40937;53.594;10.034;2023-06-22T07:57:49;7.80;;;2.80;;
55037;SDS011;40937;53.594;10.034;2023-06-22T08:00:20;4.95;;;3.30;;
55037;SDS011;40937;53.594;10.034;2023-06-22T08:02:48;5.45;;;2.55;;
55037;SDS011;40937;53.594;10.034;2023-06-22T08:05:15;3.30;;;2.80;;
55037;SDS011;40937;53.594;10.034;2023-06-22T08:07:44;3.10;;;2.80;;
55037;SDS011;40937;53.594;10.034;2023-06-22T08:10:11;2.83;;;2.63;;
55037;SDS011;40937;53.594;10.034;2023-06-22T08:12:39;2.88;;;2.45;;
55037;SDS011;40937;53.594;10.034;2023-06-22T08:15:07;2.70;;;2.50;;
55037;SDS011;40937;53.594;10.034;2023-06-22T08:17:36;4.78;;;2.78;;
55037;SDS011;40937;53.594;10.034;2023-06-22T08:20:03;3.90;;;3.35;;
55037;SDS011;40937;53.594;10.034;2023-06-22T08:22:35;5.20;;;2.63;;
55037;SDS011;40937;53.594;10.034;2023-06-22T08:25:04;3.67;;;2.90;;
55037;SDS011;40937;53.594;10.034;2023-06-22T08:27:33;5.57;;;3.70;;
55037;SDS011;40937;53.594;10.034;2023-06-22T08:30:01;4.53;;;3.08;;
55037;SDS011;40937;53.594;10.034;2023-06-22T08:32:29;3.22;;;2.83;;
55037;SDS011;40937;53.594;10.034;2023-06-22T08:34:58;4.78;;;2.97;;
55037;SDS011;40937;53.594;10.034;2023-06-22T08:37:25;3.92;;;3.20;;
55037;SDS011;40937;53.594;10.034;2023-06-22T08:39:56;4.95;;;3.13;;
55037;SDS011;40937;53.594;10.034;2023-06-22T08:42:24;6.00;;;3.08;;
55037;SDS011;40937;53.594;10.034;2023-06-22T08:44:52;3.88;;;3.55;;
55037;SDS011;40937;53.594;10.034;2023-06-22T08:47:19;2.95;;;2.75;;
55037;SDS011;40937;53.594;10.034;2023-06-22T08:49:47;4.72;;;3.28;;
55037;SDS011;40937;53.594;10.034;2023-06-22T08:52:14;2.78;;;2.58;;
55037;SDS011;40937;53.594;10.034;2023-06-22T08:54:41;3.10;;;2.80;;
55037;SDS011;40937;53.594;10.034;2023-06-22T08:57:09;3.05;;;2.75;;
55037;SDS011;40937;53.594;10.034;2023-06-22T08:59:38;6.70;;;3.20;;
55037;SDS011;40937;53.594;10.034;2023-06-22T09:02:05;2.97;;;2.63;;
55037;SDS011;40937;53.594;10.034;2023-06-22T09:04:33;3.15;;;2.60;;
55037;SDS011;40937;53.594;10.034;2023-06-22T09:07:00;5.93;;;2.50;;
55037;SDS011;40937;53.594;10.034;2023-06-22T09:09:28;2.55;;;2.25;;
55037;SDS011;40937;53.594;10.034;2023-06-22T09:11:55;3.83;;;2.53;;
55037;SDS011;40937;53.594;10.034;2023-06-22T09:14:22;4.03;;;2.67;;
55037;SDS011;40937;53.594;10.034;2023-06-22T09:16:51;4.80;;;2.67;;
55037;SDS011;40937;53.594;10.034;2023-06-22T09:19:18;6.32;;;2.95;;
55037;SDS011;40937;53.594;10.034;2023-06-22T09:21:46;3.65;;;2.83;;
55037;SDS011;40937;53.594;10.034;2023-06-22T09:24:13;6.63;;;2.95;;
55037;SDS011;40937;53.594;10.034;2023-06-22T09:26:40;3.90;;;3.30;;
55037;SDS011;40937;53.594;10.034;2023-06-22T09:29:08;3.72;;;3.42;;
55037;SDS011;40937;53.594;10.034;2023-06-22T09:31:35;3.13;;;2.92;;
55037;SDS011;40937;53.594;10.034;2023-06-22T09:34:03;5.30;;;3.78;;
55037;SDS011;40937;53.594;10.034;2023-06-22T09:36:31;3.67;;;3.38;;
55037;SDS011;40937;53.594;10.034;2023-06-22T09:38:58;3.67;;;3.40;;
55037;SDS011;40937;53.594;10.034;2023-06-22T09:41:31;5.22;;;3.13;;
55037;SDS011;40937;53.594;10.034;2023-06-22T09:43:59;3.70;;;2.83;;
55037;SDS011;40937;53.594;10.034;2023-06-22T09:46:26;3.65;;;2.80;;
55037;SDS011;40937;53.594;10.034;2023-06-22T09:48:56;2.92;;;2.72;;
55037;SDS011;40937;53.594;10.034;2023-06-22T09:51:25;3.45;;;2.58;;
55037;SDS011;40937;53.594;10.034;2023-06-22T09:54:01;6.50;;;3.10;;
55037;SDS011;40937;53.594;10.034;2023-06-22T09:56:28;5.25;;;3.35;;
55037;SDS011;40937;53.594;10.034;2023-06-22T09:58:56;3.70;;;2.75;;
55037;SDS011;40937;53.594;10.034;2023-06-22T10:01:23;4.60;;;3.42;;
55037;SDS011;40937;53.594;10.034;2023-06-22T10:03:52;3.20;;;2.90;;
55037;SDS011;40937;53.594;10.034;2023-06-22T10:06:21;4.80;;;2.60;;
55037;SDS011;40937;53.594;10.034;2023-06-22T10:08:52;4.68;;;3.17;;
55037;SDS011;40937;53.594;10.034;2023-06-22T10:11:19;3.58;;;2.92;;
55037;SDS011;40937;53.594;10.034;2023-06-22T10:13:48;2.97;;;2.72;;
55037;SDS011;40937;53.594;10.034;2023-06-22T10:16:15;4.15;;;2.85;;
55037;SDS011;40937;53.594;10.034;2023-06-22T10:18:42;3.45;;;2.90;;
55037;SDS011;40937;53.594;10.034;2023-06-22T10:21:09;4.72;;;2.90;;
55037;SDS011;40937;53.594;10.034;2023-06-22T10:23:37;6.03;;;2.78;;
55037;SDS011;40937;53.594;10.034;2023-06-22T10:26:05;3.00;;;2.70;;
55037;SDS011;40937;53.594;10.034;2023-06-22T10:28:32;4.55;;;2.67;;
55037;SDS011;40937;53.594;10.034;2023-06-22T10:31:00;3.58;;;2.92;;
55037;SDS011;40937;53.594;10.034;2023-06-22T10:33:27;4.70;;;3.63;;
55037;SDS011;40937;53.594;10.034;2023-06-22T10:35:54;5.07;;;3.28;;
55037;SDS011;40937;53.594;10.034;2023-06-22T10:38:22;4.82;;;2.78;;
55037;SDS011;40937;53.594;10.034;2023-06-22T10:40:49;3.08;;;2.83;;
55037;SDS011;40937;53.594;10.034;2023-06-22T10:43:20;3.38;;;3.05;;
55037;SDS011;40937;53.594;10.034;2023-06-22T10:45:47;4.18;;;3.58;;
55037;SDS011;40937;53.594;10.034;2023-06-22T10:48:15;3.53;;;3.20;;
55037;SDS011;40937;53.594;10.034;2023-06-22T10:50:42;3.65;;;3.28;;
55037;SDS011;40937;53.594;10.034;2023-06-22T10:53:09;3.85;;;3.00;;
55037;SDS011;40937;53.594;10.034;2023-06-22T10:55:36;3.42;;;3.03;;
55037;SDS011;40937;53.594;10.034;2023-06-22T10:58:03;8.57;;;3.30;;
55037;SDS011;40937;53.594;10.034;2023-06-22T11:00:32;3.67;;;3.15;;
55037;SDS011;40937;53.594;10.034;2023-06-22T11:02:59;3.50;;;3.30;;
55037;SDS011;40937;53.594;10.034;2023-06-22T11:05:26;3.20;;;2.90;;
55037;SDS011;40937;53.594;10.034;2023-06-22T11:07:53;3.20;;;2.90;;
55037;SDS011;40937;53.594;10.034;2023-06-22T11:10:20;3.25;;;2.95;;
55037;SDS011;40937;53.594;10.034;2023-06-22T11:12:48;5.95;;;4.00;;
55037;SDS011;40937;53.594;10.034;2023-06-22T11:15:15;4.05;;;3.50;;
55037;SDS011;40937;53.594;10.034;2023-06-22T11:17:43;3.75;;;3.40;;
55037;SDS011;40937;53.594;10.034;2023-06-22T11:20:11;3.70;;;3.45;;
55037;SDS011;40937;53.594;10.034;2023-06-22T11:22:38;3.95;;;3.65;;
55037;SDS011;40937;53.594;10.034;2023-06-22T11:25:06;3.95;;;3.40;;
55037;SDS011;40937;53.594;10.034;2023-06-22T11:27:34;3.78;;;3.25;;
55037;SDS011;40937;53.594;10.034;2023-06-22T11:30:01;3.75;;;3.45;;
55037;SDS011;40937;53.594;10.034;2023-06-22T11:32:29;3.38;;;3.10;;
55037;SDS011;40937;53.594;10.034;2023-06-22T11:34:58;4.88;;;4.45;;
55037;SDS011;40937;53.594;10.034;2023-06-22T11:37:25;6.00;;;4.00;;
55037;SDS011;40937;53.594;10.034;2023-06-22T11:39:52;5.50;;;3.45;;
55037;SDS011;40937;53.594;10.034;2023-06-22T11:42:20;4.70;;;3.85;;
55037;SDS011;40937;53.594;10.034;2023-06-22T11:44:49;3.75;;;3.55;;
55037;SDS011;40937;53.594;10.034;2023-06-22T11:47:19;4.78;;;3.75;;
55037;SDS011;40937;53.594;10.034;2023-06-22T11:49:46;4.15;;;3.85;;
55037;SDS011;40937;53.594;10.034;2023-06-22T11:52:14;4.57;;;4.10;;
55037;SDS011;40937;53.594;10.034;2023-06-22T11:54:43;4.63;;;3.78;;
55037;SDS011;40937;53.594;10.034;2023-06-22T11:57:11;4.75;;;3.38;;
55037;SDS011;40937;53.594;10.034;2023-06-22T11:59:41;5.15;;;3.45;;
55037;SDS011;40937;53.594;10.034;2023-06-22T12:02:08;4.25;;;3.88;;
55037;SDS011;40937;53.594;10.034;2023-06-22T12:04:35;4.40;;;4.10;;
55037;SDS011;40937;53.594;10.034;2023-06-22T12:07:03;3.67;;;3.30;;
55037;SDS011;40937;53.594;10.034;2023-06-22T12:09:32;3.60;;;3.30;;
55037;SDS011;40937;53.594;10.034;2023-06-22T12:11:59;3.22;;;2.95;;
55037;SDS011;40937;53.594;10.034;2023-06-22T12:14:26;3.63;;;3.33;;
55037;SDS011;40937;53.594;10.034;2023-06-22T12:16:53;3.78;;;3.35;;
55037;SDS011;40937;53.594;10.034;2023-06-22T12:19:20;4.43;;;4.03;;
55037;SDS011;40937;53.594;10.034;2023-06-22T12:21:47;3.88;;;3.65;;
55037;SDS011;40937;53.594;10.034;2023-06-22T12:24:15;5.30;;;3.88;;
55037;SDS011;40937;53.594;10.034;2023-06-22T12:26:43;3.88;;;3.65;;
55037;SDS011;40937;53.594;10.034;2023-06-22T12:29:10;10.45;;;4.25;;
55037;SDS011;40937;53.594;10.034;2023-06-22T12:31:37;6.00;;;4.10;;
55037;SDS011;40937;53.594;10.034;2023-06-22T12:34:05;4.53;;;3.92;;
55037;SDS011;40937;53.594;10.034;2023-06-22T12:36:32;5.85;;;3.42;;
55037;SDS011;40937;53.594;10.034;2023-06-22T12:38:59;3.95;;;3.65;;
55037;SDS011;40937;53.594;10.034;2023-06-22T12:41:26;3.33;;;3.03;;
55037;SDS011;40937;53.594;10.034;2023-06-22T12:43:55;4.38;;;3.97;;
55037;SDS011;40937;53.594;10.034;2023-06-22T12:46:22;5.10;;;3.97;;
55037;SDS011;40937;53.594;10.034;2023-06-22T12:48:49;3.58;;;3.33;;
55037;SDS011;40937;53.594;10.034;2023-06-22T12:51:20;3.80;;;3.50;;
55037;SDS011;40937;53.594;10.034;2023-06-22T12:53:47;9.40;;;4.05;;
55037;SDS011;40937;53.594;10.034;2023-06-22T12:56:15;5.43;;;4.03;;
55037;SDS011;40937;53.594;10.034;2023-06-22T12:58:42;5.93;;;5.50;;
55037;SDS011;40937;53.594;10.034;2023-06-22T13:01:10;4.30;;;3.90;;
55037;SDS011;40937;53.594;10.034;2023-06-22T13:03:37;4.85;;;3.45;;
55037;SDS011;40937;53.594;10.034;2023-06-22T13:06:05;4.03;;;3.67;;
55037;SDS011;40937;53.594;10.034;2023-06-22T13:08:32;4.70;;;4.03;;
55037;SDS011;40937;53.594;10.034;2023-06-22T13:10:59;5.13;;;4.15;;
55037;SDS011;40937;53.594;10.034;2023-06-22T13:13:26;4.20;;;3.90;;
55037;SDS011;40937;53.594;10.034;2023-06-22T13:15:53;6.80;;;3.97;;
55037;SDS011;40937;53.594;10.034;2023-06-22T13:18:22;4.38;;;4.03;;
55037;SDS011;40937;53.594;10.034;2023-06-22T13:20:49;3.80;;;3.60;;
55037;SDS011;40937;53.594;10.034;2023-06-22T13:23:16;3.83;;;3.45;;
55037;SDS011;40937;53.594;10.034;2023-06-22T13:25:43;4.20;;;3.90;;
55037;SDS011;40937;53.594;10.034;2023-06-22T13:28:10;4.63;;;4.22;;
55037;SDS011;40937;53.594;10.034;2023-06-22T13:30:40;4.07;;;3.50;;
55037;SDS011;40937;53.594;10.034;2023-06-22T13:33:09;3.58;;;3.38;;
55037;SDS011;40937;53.594;10.034;2023-06-22T13:35:37;4.03;;;3.65;;
55037;SDS011;40937;53.594;10.034;2023-06-22T13:38:05;3.78;;;3.58;;
55037;SDS011;40937;53.594;10.034;2023-06-22T13:40:32;6.93;;;4.32;;
55037;SDS011;40937;53.594;10.034;2023-06-22T13:43:03;3.97;;;3.78;;
55037;SDS011;40937;53.594;10.034;2023-06-22T13:45:30;9.45;;;4.30;;
55037;SDS011;40937;53.594;10.034;2023-06-22T13:47:57;4.93;;;3.72;;
55037;SDS011;40937;53.594;10.034;2023-06-22T13:50:24;5.50;;;3.92;;
55037;SDS011;40937;53.594;10.034;2023-06-22T13:52:56;7.28;;;4.50;;
55037;SDS011;40937;53.594;10.034;2023-06-22T13:55:23;4.40;;;3.88;;
55037;SDS011;40937;53.594;10.034;2023-06-22T13:57:50;4.20;;;3.90;;
55037;SDS011;40937;53.594;10.034;2023-06-22T14:00:18;4.47;;;4.15;;
55037;SDS011;40937;53.594;10.034;2023-06-22T14:02:46;4.60;;;4.25;;
55037;SDS011;40937;53.594;10.034;2023-06-22T14:05:13;5.70;;;3.90;;
55037;SDS011;40937;53.594;10.034;2023-06-22T14:07:40;4.78;;;4.22;;
55037;SDS011;40937;53.594;10.034;2023-06-22T14:10:09;4.82;;;4.45;;
55037;SDS011;40937;53.594;10.034;2023-06-22T14:12:37;5.32;;;4.40;;
55037;SDS011;40937;53.594;10.034;2023-06-22T14:15:04;3.90;;;3.63;;
55037;SDS011;40937;53.594;10.034;2023-06-22T14:17:32;4.65;;;4.22;;
55037;SDS011;40937;53.594;10.034;2023-06-22T14:19:59;5.13;;;4.22;;
55037;SDS011;40937;53.594;10.034;2023-06-22T14:22:26;3.90;;;3.50;;
55037;SDS011;40937;53.594;10.034;2023-06-22T14:24:55;4.03;;;3.72;;
55037;SDS011;40937;53.594;10.034;2023-06-22T14:27:24;9.70;;;3.80;;
55037;SDS011;40937;53.594;10.034;2023-06-22T14:29:51;4.20;;;3.40;;
55037;SDS011;40937;53.594;10.034;2023-06-22T14:32:19;4.05;;;3.75;;
55037;SDS011;40937;53.594;10.034;2023-06-22T14:34:46;5.72;;;4.25;;
55037;SDS011;40937;53.594;10.034;2023-06-22T14:37:13;6.85;;;4.00;;
55037;SDS011;40937;53.594;10.034;2023-06-22T14:39:40;7.53;;;3.78;;
55037;SDS011;40937;53.594;10.034;2023-06-22T14:42:08;10.85;;;3.78;;